Time;durP1;ratioP1;P1;durP2;ratioP2;P2;SDS_P1;SDS_P2;PMS_P1;PMS_P2;Temp;Humidity;BMP_temperature;BMP_pressure;BME280_temperature;BME280_humidity;BME280_pressure;Samples;Min_cycle;Max_cycle;Signal;HPM_P1;HPM_P2
2022/12/26 00:00:10;;;;;;;18.30;12.25;;;;;;;7.97;100.00;100827.28;1273635;23;20280;-80
2022/12/26 00:00:44;;;;;;;19.92;12.32;;;;;;;7.98;100.00;100826.28;1268086;23;20261;-80
2022/12/26 00:01:20;;;;;;;18.95;12.20;;;;;;;7.99;100.00;100827.91;1269379;23;20258;-79
2022/12/26 00:01:52;;;;;;;17.98;12.02;;;;;;;7.98;100.00;100831.56;1267340;23;20261;-79
2022/12/26 00:02:24;;;;;;;16.92;11.50;;;;;;;7.96;100.00;100838.91;1263619;23;20293;-80
2022/12/26 00:02:55;;;;;;;17.98;11.32;;;;;;;7.96;100.00;100842.38;1259378;23;20266;-79
2022/12/26 00:03:29;;;;;;;19.83;12.98;;;;;;;7.98;100.00;100855.44;1262136;23;20250;-80
2022/12/26 00:04:01;;;;;;;22.58;13.20;;;;;;;7.96;100.00;100854.84;1268788;23;20258;-81
2022/12/26 00:04:33;;;;;;;17.88;11.75;;;;;;;7.92;100.00;100862.34;1273901;23;20260;-81
2022/12/26 00:05:23;;;;;;;19.42;11.48;;;;;;;7.96;100.00;100860.94;1273554;23;20316;-79
2022/12/26 00:05:58;;;;;;;19.83;12.25;;;;;;;7.96;100.00;100854.84;1273460;23;20253;-79
2022/12/26 00:06:30;;;;;;;21.15;12.05;;;;;;;7.96;100.00;100854.84;1273776;23;20597;-82
2022/12/26 00:07:02;;;;;;;21.05;12.88;;;;;;;7.96;100.00;100858.31;1278979;23;20263;-81
2022/12/26 00:07:33;;;;;;;23.25;12.48;;;;;;;7.96;100.00;100849.53;1273166;23;20261;-80
2022/12/26 00:08:06;;;;;;;20.35;12.98;;;;;;;7.98;100.00;100852.78;1272326;23;20244;-81
2022/12/26 00:08:38;;;;;;;24.10;13.27;;;;;;;7.99;100.00;100849.13;1268370;23;20452;-79
2022/12/26 00:09:10;;;;;;;17.85;12.60;;;;;;;7.97;100.00;100851.16;1268851;23;20328;-75
2022/12/26 00:09:42;;;;;;;18.10;12.38;;;;;;;7.95;100.00;100848.72;1268492;23;20257;-74
2022/12/26 00:10:14;;;;;;;18.85;12.30;;;;;;;7.96;100.00;100847.69;1261531;23;20310;-80
2022/12/26 00:10:46;;;;;;;19.05;12.07;;;;;;;7.95;100.00;100853.19;1256995;23;20266;-74
2022/12/26 00:11:18;;;;;;;19.17;12.52;;;;;;;7.97;100.00;100861.78;1262975;23;20259;-78
2022/12/26 00:11:50;;;;;;;21.65;15.05;;;;;;;8.01;100.00;100858.53;1269472;23;20309;-73
2022/12/26 00:12:22;;;;;;;23.77;13.45;;;;;;;8.00;100.00;100850.75;1271668;23;20289;-73
2022/12/26 00:12:55;;;;;;;19.33;11.88;;;;;;;7.96;100.00;100850.34;1272541;23;20268;-78
2022/12/26 00:13:52;;;;;;;23.80;13.77;;;;;;;8.05;100.00;100843.84;1268115;23;20312;-78
2022/12/26 00:14:24;;;;;;;20.42;12.25;;;;;;;8.02;100.00;100846.06;1267356;23;20254;-80
2022/12/26 00:14:56;;;;;;;16.42;12.45;;;;;;;8.02;100.00;100852.19;1273331;23;20261;-80
2022/12/26 00:15:27;;;;;;;20.20;12.57;;;;;;;8.00;100.00;100843.63;1273360;23;20745;-79
2022/12/26 00:15:59;;;;;;;20.15;13.13;;;;;;;8.01;100.00;100847.09;1273470;23;20717;-79
2022/12/26 00:16:30;;;;;;;19.27;11.75;;;;;;;7.99;100.00;100859.75;1274349;23;20245;-80
2022/12/26 00:17:02;;;;;;;19.30;13.35;;;;;;;7.97;100.00;100856.47;1273847;23;20279;-80
2022/12/26 00:17:34;;;;;;;22.80;13.88;;;;;;;7.99;100.00;100859.75;1273727;23;20256;-80
2022/12/26 00:18:05;;;;;;;22.13;13.48;;;;;;;7.98;100.00;100858.09;1274194;23;20256;-80
2022/12/26 00:18:38;;;;;;;17.38;12.23;;;;;;;7.96;100.00;100860.13;1273590;23;20268;-80
2022/12/26 00:19:09;;;;;;;17.30;12.10;;;;;;;7.96;100.00;100854.84;1274817;23;20316;-75
2022/12/26 00:19:42;;;;;;;15.52;11.90;;;;;;;7.93;100.00;100856.00;1267541;23;20582;-74
2022/12/26 00:20:14;;;;;;;22.55;13.90;;;;;;;7.98;100.00;100847.50;1259796;23;20277;-79
2022/12/26 00:20:46;;;;;;;19.17;12.60;;;;;;;7.97;100.00;100856.47;1263589;23;20263;-74
2022/12/26 00:21:18;;;;;;;23.63;13.38;;;;;;;7.95;100.00;100863.81;1268877;23;20391;-80
2022/12/26 00:21:51;;;;;;;24.20;13.80;;;;;;;8.01;100.00;100860.34;1268106;23;20664;-79
2022/12/26 00:22:22;;;;;;;20.02;12.63;;;;;;;7.97;100.00;100861.78;1267837;23;20598;-80
2022/12/26 00:22:55;;;;;;;19.90;13.65;;;;;;;7.95;100.00;100864.63;1267187;23;20311;-79
2022/12/26 00:23:27;;;;;;;25.08;13.98;;;;;;;7.98;100.00;100853.63;1268883;23;20250;-79
2022/12/26 00:24:00;;;;;;;20.40;14.05;;;;;;;7.96;100.00;100865.44;1273679;23;20705;-80
2022/12/26 00:24:32;;;;;;;20.33;12.80;;;;;;;7.98;100.00;100861.56;1273776;23;20253;-79
2022/12/26 00:25:04;;;;;;;23.27;14.00;;;;;;;7.99;100.00;100862.38;1273989;23;20260;-79
2022/12/26 00:25:36;;;;;;;18.35;11.50;;;;;;;8.00;100.00;100866.69;1274964;23;20257;-80
2022/12/26 00:26:14;;;;;;;21.52;14.10;;;;;;;7.97;100.00;100861.78;1273275;23;20253;-80
2022/12/26 00:26:46;;;;;;;19.63;13.40;;;;;;;7.94;100.00;100859.50;1271624;23;20260;-80
2022/12/26 00:27:18;;;;;;;19.08;12.55;;;;;;;7.96;100.00;100860.94;1273056;23;20264;-81
2022/12/26 00:27:50;;;;;;;21.67;13.27;;;;;;;7.97;100.00;100865.25;1265127;23;20269;-80
2022/12/26 00:28:21;;;;;;;24.15;15.25;;;;;;;8.06;100.00;100860.56;1262324;23;20258;-80
2022/12/26 00:28:54;;;;;;;21.25;13.63;;;;;;;8.01;100.00;100869.13;1267439;23;20260;-79
2022/12/26 00:29:25;;;;;;;22.25;13.23;;;;;;;7.95;100.00;100859.31;1267895;23;20304;-80
2022/12/26 00:29:57;;;;;;;20.15;13.25;;;;;;;7.97;100.00;100856.47;1269444;23;20261;-74
2022/12/26 00:30:29;;;;;;;20.42;13.02;;;;;;;7.99;100.00;100849.13;1273726;23;20276;-74
2022/12/26 00:31:17;;;;;;;24.67;13.85;;;;;;;8.01;100.00;100857.69;1273763;23;20249;-73
2022/12/26 00:31:49;;;;;;;22.45;13.50;;;;;;;7.96;100.00;100865.44;1272818;23;20259;-74
2022/12/26 00:32:22;;;;;;;17.98;12.13;;;;;;;7.96;100.00;100863.59;1267161;23;20312;-73
2022/12/26 00:32:54;;;;;;;22.45;12.40;;;;;;;7.95;100.00;100858.50;1267139;23;20265;-74
2022/12/26 00:33:26;;;;;;;22.80;13.77;;;;;;;7.96;100.00;100862.78;1262724;23;20254;-75
2022/12/26 00:33:58;;;;;;;22.02;13.75;;;;;;;7.98;100.00;100863.41;1267867;23;20497;-75
2022/12/26 00:34:30;;;;;;;18.83;12.68;;;;;;;7.99;100.00;100865.03;1273625;23;20260;-75
2022/12/26 00:35:02;;;;;;;23.98;13.63;;;;;;;7.99;100.00;100859.75;1274947;23;20285;-81
2022/12/26 00:35:33;;;;;;;20.75;13.60;;;;;;;8.00;100.00;100861.38;1279198;23;20747;-80
2022/12/26 00:36:08;;;;;;;22.92;12.90;;;;;;;8.01;100.00;100861.16;1279957;23;20256;-75
2022/12/26 00:36:40;;;;;;;25.35;14.75;;;;;;;8.01;100.00;100860.34;1274084;23;20304;-81
2022/12/26 00:37:12;;;;;;;23.88;13.13;;;;;;;8.01;100.00;100865.66;1264943;23;20273;-80
2022/12/26 00:37:43;;;;;;;22.10;12.40;;;;;;;8.00;100.00;100869.31;1261328;23;20250;-81
2022/12/26 00:38:15;;;;;;;23.40;12.75;;;;;;;8.00;100.00;100866.69;1256399;23;20277;-80
2022/12/26 00:38:47;;;;;;;18.80;11.95;;;;;;;8.02;100.00;100859.34;1255678;23;20258;-80
2022/12/26 00:39:19;;;;;;;21.80;12.98;;;;;;;8.02;100.00;100862.00;1256436;23;20258;-81
2022/12/26 00:39:50;;;;;;;21.75;13.18;;;;;;;8.00;100.00;100864.84;1262234;23;20258;-80
2022/12/26 00:40:22;;;;;;;24.30;13.40;;;;;;;8.03;100.00;100864.44;1268188;23;20250;-80
2022/12/26 00:40:53;;;;;;;25.70;15.02;;;;;;;8.00;100.00;100866.69;1273824;23;20264;-81
2022/12/26 00:41:25;;;;;;;25.10;13.82;;;;;;;7.99;100.00;100865.84;1273993;23;20612;-81
2022/12/26 00:41:57;;;;;;;21.40;12.27;;;;;;;8.03;100.00;100871.59;1274231;23;20582;-81
2022/12/26 00:42:36;;;;;;;21.58;13.05;;;;;;;8.01;100.00;100868.31;1265645;23;20269;-75
2022/12/26 00:43:08;;;;;;;17.77;12.63;;;;;;;8.04;100.00;100873.22;1261589;23;20300;-75
2022/12/26 00:43:40;;;;;;;21.00;14.32;;;;;;;8.08;100.00;100874.44;1261323;23;20777;-75
2022/12/26 00:44:11;;;;;;;23.05;13.50;;;;;;;8.02;100.00;100867.28;1263402;23;20341;-75
2022/12/26 00:44:43;;;;;;;24.50;12.80;;;;;;;8.05;100.00;100874.84;1268452;23;20252;-75
2022/12/26 00:45:15;;;;;;;21.63;13.13;;;;;;;8.01;100.00;100876.25;1273462;23;20253;-75
2022/12/26 00:45:47;;;;;;;21.25;13.32;;;;;;;8.00;100.00;100877.28;1273232;23;20471;-75
2022/12/26 00:46:18;;;;;;;25.95;14.25;;;;;;;8.01;100.00;100873.63;1273658;23;20301;-73
2022/12/26 00:46:50;;;;;;;25.83;14.68;;;;;;;8.00;100.00;100867.50;1272759;23;20257;-75
2022/12/26 00:47:22;;;;;;;23.77;14.35;;;;;;;8.02;100.00;100875.25;1273311;23;20260;-75
2022/12/26 00:47:53;;;;;;;22.52;13.95;;;;;;;8.03;100.00;100868.94;1273192;23;20788;-74
2022/12/26 00:48:26;;;;;;;28.55;15.00;;;;;;;8.03;100.00;100874.22;1265125;23;20348;-74
2022/12/26 00:48:57;;;;;;;25.50;14.75;;;;;;;8.07;100.00;100867.50;1266637;23;20316;-74
2022/12/26 00:49:29;;;;;;;25.58;14.52;;;;;;;8.05;100.00;100874.84;1266890;23;20257;-74
2022/12/26 00:50:20;;;;;;;;;;;;;;;8.02;100.00;100872.59;1264044;23;20265;-74
2022/12/26 00:50:52;;;;;;;27.17;13.18;;;;;;;8.03;100.00;100883.00;1270030;23;20379;-75
2022/12/26 00:51:23;;;;;;;26.20;14.07;;;;;;;8.01;100.00;100876.25;1273493;23;20260;-80
2022/12/26 00:51:55;;;;;;;23.80;14.63;;;;;;;8.03;100.00;100888.31;1273083;23;20458;-80
2022/12/26 00:52:27;;;;;;;26.33;15.18;;;;;;;8.01;100.00;100892.19;1273006;23;20253;-80
2022/12/26 00:52:58;;;;;;;22.88;13.45;;;;;;;8.02;100.00;100891.16;1273800;23;20249;-80
2022/12/26 00:53:31;;;;;;;26.27;14.32;;;;;;;8.06;100.00;100887.09;1273654;23;20257;-80
2022/12/26 00:54:02;;;;;;;26.63;15.10;;;;;;;8.09;100.00;100891.19;1273135;23;20725;-80
2022/12/26 00:54:34;;;;;;;24.63;14.38;;;;;;;8.14;100.00;100894.88;1264984;23;20273;-80
2022/12/26 00:55:06;;;;;;;25.08;16.15;;;;;;;8.11;100.00;100889.97;1266524;23;20264;-80
2022/12/26 00:55:38;;;;;;;25.17;15.35;;;;;;;8.12;100.00;100886.28;1262126;23;20317;-80
2022/12/26 00:56:12;;;;;;;27.15;14.18;;;;;;;8.10;100.00;100883.03;1268497;23;20578;-80
2022/12/26 00:56:43;;;;;;;25.65;14.32;;;;;;;8.14;100.00;100888.75;1273132;23;20265;-80
2022/12/26 00:57:15;;;;;;;28.30;14.30;;;;;;;8.09;100.00;100881.38;1274596;23;20260;-73
2022/12/26 00:57:46;;;;;;;29.33;14.85;;;;;;;8.09;100.00;100891.19;1277977;23;20259;-74
2022/12/26 00:58:19;;;;;;;25.40;14.77;;;;;;;8.11;100.00;100889.16;1273046;23;20589;-74
2022/12/26 00:58:51;;;;;;;30.88;16.10;;;;;;;8.14;100.00;100880.78;1273424;23;20325;-72
2022/12/26 00:59:23;;;;;;;28.65;15.93;;;;;;;8.08;100.00;100879.75;1273726;23;20249;-74
2022/12/26 00:59:54;;;;;;;29.75;15.50;;;;;;;8.04;100.00;100879.34;1274299;23;20253;-74
2022/12/26 01:00:26;;;;;;;25.50;14.75;;;;;;;8.07;100.00;100884.25;1274023;23;20315;-74
2022/12/26 01:01:08;;;;;;;27.17;15.65;;;;;;;8.08;100.00;100879.75;1273016;23;20257;-75
2022/12/26 01:01:40;;;;;;;27.42;14.88;;;;;;;8.06;100.00;100882.59;1261161;23;20257;-74
2022/12/26 01:03:06;;;;;;;24.77;13.52;;;;;;;8.08;100.00;100879.75;1267091;23;20793;-74
2022/12/26 01:03:38;;;;;;;25.60;13.93;;;;;;;8.06;100.00;100876.47;1271923;23;20013;-75
2022/12/26 01:04:10;;;;;;;27.80;14.43;;;;;;;8.09;100.00;100873.44;1261639;23;20254;-79
2022/12/26 01:04:42;;;;;;;26.70;15.77;;;;;;;8.11;100.00;100874.06;1253570;23;20274;-80
2022/12/26 01:05:14;;;;;;;27.88;16.85;;;;;;;8.05;100.00;100880.16;1256115;23;20261;-80
2022/12/26 01:05:50;;;;;;;24.23;13.77;;;;;;;8.09;100.00;100881.38;1256230;23;20333;-74
2022/12/26 01:06:22;;;;;;;25.13;15.13;;;;;;;8.09;100.00;100873.44;1269996;23;20253;-79
2022/12/26 01:06:57;;;;;;;26.23;14.65;;;;;;;8.08;100.00;100879.75;1274708;23;20276;-80
2022/12/26 01:07:32;;;;;;;30.27;16.77;;;;;;;8.04;100.00;100875.88;1276785;23;20276;-80
2022/12/26 01:08:33;;;;;;;24.92;13.93;;;;;;;8.03;100.00;100888.31;1273778;23;20602;-81
2022/12/26 01:09:04;;;;;;;25.90;14.80;;;;;;;8.04;100.00;100883.81;1273675;23;20260;-80
2022/12/26 01:09:37;;;;;;;28.83;14.63;;;;;;;8.01;100.00;100877.09;1273226;23;20249;-80
2022/12/26 01:10:11;;;;;;;27.63;14.88;;;;;;;8.01;100.00;100884.22;1273662;23;20335;-80
2022/12/26 01:10:45;;;;;;;27.20;15.32;;;;;;;8.00;100.00;100885.25;1276390;23;20252;-80
2022/12/26 01:11:39;;;;;;;;;;;;;;;8.05;100.00;100880.16;1277258;23;20252;-75
2022/12/26 01:12:11;;;;;;;18.80;11.35;;;;;;;8.06;100.00;100885.25;1274747;23;19921;-78
2022/12/26 01:12:43;;;;;;;23.77;13.73;;;;;;;8.11;100.00;100878.53;1273243;23;20816;-74
2022/12/26 01:13:14;;;;;;;25.88;14.65;;;;;;;8.07;100.00;100880.78;1267500;23;20250;-75
2022/12/26 01:13:46;;;;;;;26.48;14.93;;;;;;;8.08;100.00;100877.09;1266215;23;20250;-74
2022/12/26 01:14:18;;;;;;;24.40;14.70;;;;;;;8.05;100.00;100886.28;1267984;23;20333;-74
2022/12/26 01:14:49;;;;;;;21.15;14.43;;;;;;;8.07;100.00;100886.91;1267652;23;20250;-74
2022/12/26 01:15:21;;;;;;;25.38;13.63;;;;;;;8.10;100.00;100888.34;1267883;23;20257;-74
2022/12/26 01:15:53;;;;;;;26.77;15.45;;;;;;;8.12;100.00;100883.66;1272841;23;20261;-74
2022/12/26 01:16:25;;;;;;;29.55;15.82;;;;;;;8.08;100.00;100885.06;1265501;23;20266;-74
2022/12/26 01:16:56;;;;;;;25.90;13.48;;;;;;;8.06;100.00;100887.09;1267347;23;20253;-74
2022/12/26 01:17:28;;;;;;;27.70;14.27;;;;;;;8.10;100.00;100888.34;1268433;23;20713;-74
2022/12/26 01:18:01;;;;;;;27.90;15.25;;;;;;;8.11;100.00;100889.16;1268598;23;20249;-75
2022/12/26 01:18:36;;;;;;;27.40;15.15;;;;;;;8.08;100.00;100893.03;1268341;23;20330;-76
2022/12/26 01:19:08;;;;;;;23.92;14.52;;;;;;;8.07;100.00;100892.19;1268556;23;20590;-80
2022/12/26 01:19:40;;;;;;;28.30;16.27;;;;;;;8.08;100.00;100890.38;1263973;23;20386;-80
2022/12/26 01:20:13;;;;;;;28.45;15.40;;;;;;;8.13;100.00;100903.84;1269176;23;20377;-75
2022/12/26 01:20:45;;;;;;;27.08;15.32;;;;;;;8.16;100.00;100902.63;1268238;23;20663;-74
2022/12/26 01:21:16;;;;;;;23.25;15.32;;;;;;;8.11;100.00;100895.28;1270167;23;20241;-80
2022/12/26 01:21:48;;;;;;;28.38;15.15;;;;;;;8.09;100.00;100897.31;1274002;23;20272;-81
2022/12/26 01:22:20;;;;;;;28.90;14.38;;;;;;;8.08;100.00;100895.66;1267976;23;20253;-80
2022/12/26 01:22:54;;;;;;;25.15;14.30;;;;;;;8.06;100.00;100892.41;1267323;23;20257;-80
2022/12/26 01:23:25;;;;;;;29.00;15.75;;;;;;;8.09;100.00;100893.84;1259531;23;20597;-76
2022/12/26 01:23:57;;;;;;;28.55;14.65;;;;;;;8.08;100.00;100887.72;1263367;23;20269;-80
2022/12/26 01:24:29;;;;;;;29.77;16.42;;;;;;;8.06;100.00;100882.59;1262237;23;20261;-80
2022/12/26 01:25:01;;;;;;;27.42;14.82;;;;;;;8.14;100.00;100894.88;1267604;23;20262;-80
2022/12/26 01:25:32;;;;;;;24.10;15.55;;;;;;;8.13;100.00;100893.22;1273627;23;20265;-81
2022/12/26 01:26:05;;;;;;;32.20;15.45;;;;;;;8.09;100.00;100897.31;1266024;23;20372;-81
2022/12/26 01:26:50;;;;;;;26.13;14.00;;;;;;;8.08;100.00;100895.66;1258939;23;20273;-81
2022/12/26 01:27:23;;;;;;;27.30;15.57;;;;;;;8.08;100.00;100895.66;1256716;23;20322;-79
2022/12/26 01:27:56;;;;;;;30.38;15.25;;;;;;;8.09;100.00;100897.31;1251699;23;20380;-80
2022/12/26 01:28:27;;;;;;;31.05;15.00;;;;;;;8.13;100.00;100903.84;1254106;23;20810;-80
2022/12/26 01:28:59;;;;;;;32.15;15.43;;;;;;;8.12;100.00;100898.75;1256499;23;20676;-80
2022/12/26 01:29:32;;;;;;;26.30;15.75;;;;;;;8.23;100.00;100895.53;1263841;23;20341;-80
2022/12/26 01:30:05;;;;;;;32.65;15.73;;;;;;;8.14;100.00;100905.47;1269255;23;20254;-80
2022/12/26 01:30:36;;;;;;;28.88;15.23;;;;;;;8.13;100.00;100898.53;1273381;23;20253;-80
2022/12/26 01:31:08;;;;;;;29.58;15.15;;;;;;;8.12;100.00;100907.53;1273346;23;20253;-80
2022/12/26 01:31:39;;;;;;;33.30;16.85;;;;;;;8.15;100.00;100908.94;1274119;23;20260;-80
2022/12/26 01:32:11;;;;;;;29.10;15.52;;;;;;;8.10;100.00;100909.56;1273761;23;20741;-80
2022/12/26 01:32:43;;;;;;;30.33;15.63;;;;;;;8.10;100.00;100909.56;1273582;23;20253;-80
2022/12/26 01:33:15;;;;;;;29.95;15.70;;;;;;;8.07;100.00;100899.34;1273359;23;20253;-80
2022/12/26 01:33:47;;;;;;;34.08;16.08;;;;;;;8.05;100.00;100912.00;1274783;23;20723;-77
2022/12/26 01:34:20;;;;;;;30.52;15.82;;;;;;;8.08;100.00;100906.28;1274426;23;20257;-79
2022/12/26 01:34:54;;;;;;;29.63;15.82;;;;;;;8.06;100.00;100909.13;1274755;23;20253;-80
2022/12/26 01:35:27;;;;;;;31.02;16.13;;;;;;;8.07;100.00;100915.25;1274275;23;20362;-80
2022/12/26 01:35:58;;;;;;;26.02;15.18;;;;;;;8.10;100.00;100906.91;1275570;23;20260;-81
2022/12/26 01:36:33;;;;;;;31.67;15.82;;;;;;;8.06;100.00;100921.59;1265098;23;20269;-81
2022/12/26 01:37:04;;;;;;;27.88;14.98;;;;;;;8.06;100.00;100916.28;1260983;23;20265;-80
2022/12/26 01:37:36;;;;;;;28.60;14.25;;;;;;;8.12;100.00;100918.13;1261817;23;20313;-74
2022/12/26 01:38:08;;;;;;;32.17;15.60;;;;;;;8.11;100.00;100921.81;1257161;23;20629;-74
2022/12/26 01:38:39;;;;;;;34.13;14.85;;;;;;;8.09;100.00;100917.72;1265887;23;20741;-75
2022/12/26 01:39:11;;;;;;;31.55;14.85;;;;;;;8.08;100.00;100916.91;1266567;23;20738;-74
2022/12/26 01:39:43;;;;;;;29.50;15.65;;;;;;;8.12;100.00;100914.66;1267839;23;20257;-75
2022/12/26 01:40:14;;;;;;;28.65;15.30;;;;;;;8.12;100.00;100922.63;1270653;23;20269;-74
2022/12/26 01:40:47;;;;;;;25.75;14.88;;;;;;;8.08;100.00;100922.19;1267299;23;20261;-74
2022/12/26 01:41:19;;;;;;;30.48;14.25;;;;;;;8.12;100.00;100918.13;1267800;23;20265;-74
2022/12/26 01:41:54;;;;;;;31.38;15.68;;;;;;;8.11;100.00;100921.81;1269269;23;20301;-78
2022/12/26 01:42:35;;;;;;;32.47;14.85;;;;;;;8.11;100.00;100916.50;1274787;23;20257;-75
2022/12/26 01:43:10;;;;;;;31.45;14.80;;;;;;;8.11;100.00;100913.03;1267587;23;20582;-74
2022/12/26 01:43:56;;;;;;;29.88;13.48;;;;;;;8.13;100.00;100919.75;1259566;23;20377;-73
2022/12/26 01:45:05;;;;;;;31.40;15.10;;;;;;;8.23;100.00;100916.75;1261403;23;20258;-73
2022/12/26 01:45:36;;;;;;;26.20;13.85;;;;;;;8.18;100.00;100917.34;1272320;23;20253;-74
2022/12/26 01:46:08;;;;;;;30.95;14.68;;;;;;;8.22;100.00;100915.94;1273600;23;20257;-73
2022/12/26 01:46:43;;;;;;;30.20;14.02;;;;;;;8.20;100.00;100915.28;1273207;23;20260;-74
2022/12/26 01:47:15;;;;;;;33.58;15.25;;;;;;;8.22;100.00;100913.28;1258912;23;20797;-74
2022/12/26 01:48:13;;;;;;;40.13;16.52;;;;;;;8.30;100.00;100914.94;1261002;23;20258;-79
2022/12/26 01:48:45;;;;;;;33.30;14.77;;;;;;;8.20;100.00;100910.00;1257139;23;20274;-75
2022/12/26 01:49:22;;;;;;;29.20;13.73;;;;;;;8.18;100.00;100904.06;1273359;23;20256;-75
2022/12/26 01:49:54;;;;;;;28.95;14.45;;;;;;;8.20;100.00;100903.88;1267360;23;20281;-74
2022/12/26 01:50:58;;;;;;;30.08;14.95;;;;;;;8.16;100.00;100906.09;1254658;23;20282;-74
2022/12/26 01:51:33;;;;;;;28.35;14.25;;;;;;;8.20;100.00;100903.88;1232227;24;20707;-74
2022/12/26 01:52:08;;;;;;;34.45;15.10;;;;;;;8.18;100.00;100898.75;1262242;23;20270;-74
2022/12/26 01:52:43;;;;;;;25.40;13.32;;;;;;;8.15;100.00;100907.13;1267384;23;20253;-74
2022/12/26 01:53:17;;;;;;;30.55;16.42;;;;;;;8.15;100.00;100912.44;1267355;23;20250;-74
2022/12/26 01:53:51;;;;;;;31.40;14.35;;;;;;;8.15;100.00;100907.13;1269847;23;20269;-73
2022/12/26 01:54:24;;;;;;;31.48;15.88;;;;;;;8.17;100.00;100909.56;1267393;23;20245;-74
2022/12/26 01:55:15;;;;;;;31.02;14.05;;;;;;;8.19;100.00;100912.84;1264139;23;20266;-74
2022/12/26 01:55:50;;;;;;;33.63;14.80;;;;;;;8.16;100.00;100903.44;1253166;23;20585;-74
2022/12/26 01:56:29;;;;;;;29.58;13.70;;;;;;;8.13;100.00;100909.16;1260441;23;20251;-74
2022/12/26 01:57:04;;;;;;;29.58;13.90;;;;;;;8.15;100.00;100908.94;1261078;23;20254;-74
2022/12/26 01:57:40;;;;;;;28.73;13.88;;;;;;;8.18;100.00;100917.34;1268374;23;20805;-74
2022/12/26 01:58:16;;;;;;;34.88;15.40;;;;;;;8.17;100.00;100902.44;1267318;23;20794;-74
2022/12/26 01:58:59;;;;;;;32.75;15.95;;;;;;;8.17;100.00;100910.38;1271248;23;20256;-75
2022/12/26 01:59:35;;;;;;;33.20;14.93;;;;;;;8.13;100.00;100893.22;1268277;23;20257;-74
2022/12/26 02:00:07;;;;;;;36.10;15.73;;;;;;;8.23;100.00;100904.31;1266091;23;20710;-74
2022/12/26 02:00:44;;;;;;;35.10;16.15;;;;;;;8.19;100.00;100891.63;1259377;23;20606;-74
2022/12/26 02:01:17;;;;;;;31.13;16.05;;;;;;;8.16;100.00;100895.50;1257358;23;20247;-74
2022/12/26 02:01:51;;;;;;;41.13;16.48;;;;;;;8.22;100.00;100896.56;1263335;23;20341;-74
2022/12/26 02:02:27;;;;;;;36.15;16.80;;;;;;;8.17;100.00;100897.13;1264328;23;20265;-74
2022/12/26 02:05:33;;;;;;;39.72;15.73;;;;;;;8.16;100.00;100902.63;1273920;23;20276;-74
2022/12/26 02:06:08;;;;;;;37.50;16.88;;;;;;;8.18;100.00;100905.91;1273914;23;20283;-80
2022/12/26 02:06:40;;;;;;;38.63;17.98;;;;;;;8.18;100.00;100901.41;1273259;23;20249;-81
2022/12/26 02:07:12;;;;;;;55.88;17.90;;;;;;;8.18;100.00;100905.91;1270424;23;20269;-80
2022/12/26 02:07:44;;;;;;;38.78;16.20;;;;;;;8.18;100.00;100900.59;1268362;23;20257;-80
2022/12/26 02:08:21;;;;;;;35.50;15.93;;;;;;;8.13;100.00;100898.53;1257924;23;20266;-81
2022/12/26 02:08:53;;;;;;;41.42;19.02;;;;;;;8.13;100.00;100903.84;1257909;23;20259;-73
2022/12/26 02:09:25;;;;;;;44.78;17.73;;;;;;;8.14;100.00;100902.00;1263749;23;20269;-80
2022/12/26 02:09:56;;;;;;;46.75;19.63;;;;;;;8.15;100.00;100896.50;1268184;23;20258;-80
2022/12/26 02:10:31;;;;;;;42.05;18.75;;;;;;;8.19;100.00;100902.22;1266734;23;20258;-80
2022/12/26 02:11:11;;;;;;;49.58;20.17;;;;;;;8.20;100.00;100906.53;1268227;23;20602;-74
2022/12/26 02:11:50;;;;;;;46.22;19.33;;;;;;;8.17;100.00;100894.47;1261157;23;20278;-74
2022/12/26 02:12:41;;;;;;;43.20;19.55;;;;;;;8.16;100.00;100902.63;1262273;23;20316;-74
2022/12/26 02:13:14;;;;;;;39.70;19.80;;;;;;;8.20;100.00;100898.56;1261283;23;20250;-74
2022/12/26 02:13:46;;;;;;;46.92;18.88;;;;;;;8.20;100.00;100902.03;1259061;23;20802;-74
2022/12/26 02:14:17;;;;;;;48.05;18.95;;;;;;;8.18;100.00;100897.94;1261037;23;20258;-73
2022/12/26 02:14:49;;;;;;;46.63;20.48;;;;;;;8.15;100.00;100896.50;1256247;23;20353;-74
2022/12/26 02:15:21;;;;;;;42.40;19.88;;;;;;;8.14;100.00;100904.66;1255958;23;20324;-74
2022/12/26 02:15:52;;;;;;;50.20;18.67;;;;;;;8.15;100.00;100899.16;1253616;23;20274;-74
2022/12/26 02:16:24;;;;;;;48.85;18.48;;;;;;;8.15;100.00;100901.81;1262158;23;20259;-73
2022/12/26 02:16:56;;;;;;;41.90;19.23;;;;;;;8.14;100.00;100900.19;1260812;23;20595;-73
2022/12/26 02:17:28;;;;;;;42.85;19.98;;;;;;;8.13;100.00;100898.53;1261815;23;20278;-75
2022/12/26 02:17:59;;;;;;;49.85;20.88;;;;;;;8.15;100.00;100901.81;1262158;23;20258;-75
2022/12/26 02:18:31;;;;;;;41.03;19.15;;;;;;;8.11;100.00;100900.56;1259542;23;20270;-74
2022/12/26 02:19:07;;;;;;;50.08;19.60;;;;;;;8.15;100.00;100901.81;1267400;23;20701;-74
2022/12/26 02:20:00;;;;;;;48.90;19.63;;;;;;;8.14;100.00;100908.13;1269902;23;20254;-74
2022/12/26 02:20:56;;;;;;;50.65;17.27;;;;;;;8.16;100.00;100907.94;1279222;23;20252;-74
2022/12/26 02:21:30;;;;;;;37.33;17.98;;;;;;;8.19;100.00;100900.41;1258313;23;20286;-80
2022/12/26 02:22:36;;;;;;;46.20;18.48;;;;;;;8.28;100.00;100901.88;1273676;23;20253;-74
2022/12/26 02:23:33;;;;;;;40.53;17.25;;;;;;;8.19;100.00;100908.34;1279046;23;20311;-80
2022/12/26 02:24:22;;;;;;;41.70;18.60;;;;;;;8.16;100.00;100903.44;1273591;23;21096;-75
2022/12/26 02:24:57;;;;;;;36.53;18.40;;;;;;;8.16;100.00;100900.78;1272833;23;20291;-74
2022/12/26 02:26:03;;;;;;;37.25;17.10;;;;;;;8.16;100.00;100899.97;1273606;23;20022;-80
2022/12/26 02:26:59;;;;;;;45.38;17.77;;;;;;;8.21;100.00;100901.00;1265046;23;20745;-81
2022/12/26 02:27:40;;;;;;;33.65;16.25;;;;;;;8.17;100.00;100893.66;1273058;23;20257;-80
2022/12/26 02:28:59;;;;;;;42.40;18.23;;;;;;;8.16;100.00;100903.44;1264679;23;20258;-81
2022/12/26 02:29:43;;;;;;;41.05;16.55;;;;;;;8.14;100.00;100902.84;1260307;23;20034;-80
2022/12/26 02:30:31;;;;;;;45.67;18.25;;;;;;;8.15;100.00;100901.81;1262210;23;20258;-80
2022/12/26 02:31:15;;;;;;;46.20;19.20;;;;;;;8.18;100.00;100901.41;1273831;23;20718;-80
2022/12/26 02:32:13;;;;;;;40.70;18.48;;;;;;;8.13;100.00;100909.16;1273722;23;20288;-80
2022/12/26 02:33:32;;;;;;;38.85;17.98;;;;;;;8.17;100.00;100902.44;1271265;23;20272;-80
2022/12/26 02:34:46;;;;;;;34.53;16.85;;;;;;;8.16;100.00;100903.44;1266942;23;20290;-80
2022/12/26 02:35:50;;;;;;;40.20;17.50;;;;;;;8.18;100.00;100909.38;1261047;23;20258;-81
2022/12/26 02:36:36;;;;;;;32.42;16.58;;;;;;;8.19;100.00;100911.00;1248307;23;20275;-81
2022/12/26 02:37:14;;;;;;;40.53;17.65;;;;;;;8.16;100.00;100903.44;1266592;23;20691;-81
2022/12/26 02:38:28;;;;;;;35.58;16.95;;;;;;;8.19;100.00;100915.50;1273639;23;20269;-81
2022/12/26 02:39:06;;;;;;;36.35;17.83;;;;;;;8.21;100.00;100906.31;1260858;23;20262;-80
2022/12/26 02:40:10;;;;;;;35.05;17.40;;;;;;;8.16;100.00;100908.75;1261097;23;20269;-81
2022/12/26 02:40:41;;;;;;;39.05;17.60;;;;;;;8.16;100.00;100911.41;1261016;23;20738;-81
2022/12/26 02:41:34;;;;;;;40.80;18.35;;;;;;;8.16;100.00;100914.06;1260958;23;20294;-81
2022/12/26 02:42:10;;;;;;;43.15;18.98;;;;;;;8.18;100.00;100914.69;1273361;23;20245;-81
2022/12/26 02:42:50;;;;;;;42.67;18.38;;;;;;;8.15;100.00;100915.06;1273323;23;20256;-80
2022/12/26 02:43:44;;;;;;;37.88;19.05;;;;;;;8.18;100.00;100911.22;1273931;23;20249;-80
2022/12/26 02:47:54;;;;;;;37.50;17.98;;;;;;;8.18;100.00;100917.34;1273565;23;20249;-74
2022/12/26 02:48:43;;;;;;;41.65;17.73;;;;;;;8.11;100.00;100903.22;1247647;23;20279;-80
2022/12/26 03:13:09;;;;;;;36.60;19.42;;;;;;;8.12;100.00;100896.91;1272982;23;20245;-80
2022/12/26 03:13:35;;;;;;;37.25;18.48;;;;;;;8.09;100.00;100899.97;1266976;23;20254;-75